Poughkeepsie, NY

9:05 AM EST on February 07, 2016 (GMT -0500)
Fairview 2 | | Change Station
CLOSE
Current Station
Personal Weather Station
Location: Poughkeepsie, NY
Elevation: 279 ft
Nearby Weather Stations

Elev 279 ft 41.73 °N, 73.91 °W | Updated 3 seconds ago

Mostly Cloudy
Mostly Cloudy
31.1 °F
Feels Like 31 °F
N
0.0
Wind Variable Wind from SW
Gusts 0.0 mph

Today
High -- | Low -- °F
--% Chance of Precip.
Yesterday
High -- | Low -- °F
Precip. -- in
Pressure 30.16 in
Visibility 10.0 miles
Clouds Clear
Windchill 31 °F
Dew Point 24 °F
Humidity 74%
Rainfall 0.00 in
Snow Depth Not available.
7:01 AM 5:18 PM
Waning Crescent, 1% visible
METAR KPOU 071353Z 00000KT 10SM CLR 00/M05 A3016 RMK AO2 SLP213 T00001050
Pressure 30.16 in
Visibility 10.0 miles
Clouds Clear
Windchill 31 °F
Dew Point 24 °F
Humidity 74%
Rainfall 0.00 in
Snow Depth Not available.
7:01 AM 5:18 PM
Waning Crescent, 1% visible
METAR KPOU 071353Z 00000KT 10SM CLR 00/M05 A3016 RMK AO2 SLP213 T00001050

10-Day Weather Forecast

Almanac

Astronomy

Feb. 07, 2016 Rise Set
Actual Time
Civil Twilight
Nautical Twilight
Astronomical Twilight
Moon
Length of Visible Light
Length of Day
Tomorrow will be .
, % of the Moon is Illuminated

Today's Extremes

State Highs State Lows

Community

WunderPhotos

Upload Photos

1,891,204 photos uploaded!

WunderBlog® & News

Nearby

Air Quality

  Air Quality AQ Index Pollutant
Not available.

Snow Depth

Station Depth Elevation

Earthquake Activity

City Distance Mag. Time & Date
Minimum magnitude displayed is 2.5.

Coastal Water Temperatures

Place Temperature

Stations

Nearby Weather Stations

Station Location Temp. Windchill Dew Point Humidity Wind Precip. Elev Updated Type
                   

Watches & Warnings

There are currently no watches in effect.